Hood River, OR

3:49 PM PDT on August 27, 2014 (GMT -0700)
Rockford | Change Station
CLOSE
Current Station
Personal Weather Station
Location: Hood River, OR
Elevation: 801 ft
Nearby Weather Stations

Elev 801 ft 45.68 °N, 121.57 °W | Updated 1 minute ago

Clear
Clear
95.4 °F
Feels Like 95 °F
N
2.7
Wind Variable Wind from West

Today
High -- | Low -- °F
--% Chance of Precip.
Yesterday
High -- | Low -- °F
Precip. -- in
6:21 AM 7:53 PM
Waxing Crescent, 5% visible
Pressure 29.89 in
Visibility 10.0 miles
Clouds Clear
Heat Index 95 °F
Dew Point 59 °F
Humidity 30%
Rainfall 0.00 in
Snow Depth 0 in
UV 7 out of 12
Pollen 4.00 out of 12
Air Quality Not available.
Flu Activity Not available.
METAR KDLS 272153Z AUTO 30015G22KT 10SM CLR 36/12 A2990 RMK AO2 PK WND 31027/2120 SLP121 T03560117

More Conditions Fewer Conditions

Pressure 29.89 in
Visibility 10.0 miles
Clouds Clear
Heat Index 95 °F
Dew Point 59 °F
Humidity 30%
Rainfall 0.00 in
Snow Depth 0 in
UV 7 out of 12
Pollen 4.00 out of 12
Air Quality Not available.
Flu Activity Not available.
METAR KDLS 272153Z AUTO 30015G22KT 10SM CLR 36/12 A2990 RMK AO2 PK WND 31027/2120 SLP121 T03560117

More Conditions Fewer Conditions

10-Day Weather Forecast

Almanac

Astronomy

Aug. 27, 2014 Rise Set
Actual Time 6:21 AM PDT 7:53 PM PDT
Civil Twilight 5:50 AM PDT 8:24 PM PDT
Nautical Twilight 5:12 AM PDT 9:01 PM PDT
Astronomical Twilight 4:31 AM PDT 9:42 PM PDT
Moon 8:30 AM PDT 8:38 PM PDT
Length of Visible Light 14h 33m
Length of Day
13h 31m
Tomorrow will be 3m 3s shorter.
Waxing Crescent, 5% of the Moon is Illuminated
Today
Waxing Crescent
Sep 2
First Quarter
Sep 8
Full
Sep 15
Last Quarter
Sep 24
New

Today's Extremes

State Highs State Lows

Community

WunderPhotos

Upload Photos

1,747,805 photos uploaded!

Nearby

Snow Depth

Station Depth Elevation
Greenpoint 0 in 3200 ft
Blazed Alder 0 in 3650 ft
North Fork 0 in 3120 ft
Clear Lake 0 in 3500 ft
Clackamas Lake 0 in 3400 ft

Earthquake Activity

City Distance Mag. Time & Date
No recent earthquake activity has been reported nearby.
Minimum magnitude displayed is 2.5.

Coastal Water Temperatures

Place Temperature
No Stations Reporting

Nearby Weather Stations